sensor_id;sensor_type;location;lat;lon;timestamp;pressure;altitude;pressure_sealevel;temperature;humidity
9672;BME280;4874;43.568;27.824;2023-05-23T00:00:51;98600.69;;;15.36;100.00
9672;BME280;4874;43.568;27.824;2023-05-23T00:03:18;98604.34;;;15.20;100.00
9672;BME280;4874;43.568;27.824;2023-05-23T00:05:48;98611.91;;;15.17;100.00
9672;BME280;4874;43.568;27.824;2023-05-23T00:08:16;98603.88;;;15.17;100.00
9672;BME280;4874;43.568;27.824;2023-05-23T00:10:43;98603.88;;;15.02;100.00
9672;BME280;4874;43.568;27.824;2023-05-23T00:13:11;98601.47;;;14.93;100.00
9672;BME280;4874;43.568;27.824;2023-05-23T00:15:39;98603.22;;;15.00;100.00
9672;BME280;4874;43.568;27.824;2023-05-23T00:18:07;98597.09;;;14.92;100.00
9672;BME280;4874;43.568;27.824;2023-05-23T00:20:38;98593.34;;;15.01;100.00
9672;BME280;4874;43.568;27.824;2023-05-23T00:23:10;98593.44;;;14.93;100.00
9672;BME280;4874;43.568;27.824;2023-05-23T00:25:39;98594.25;;;14.93;100.00
9672;BME280;4874;43.568;27.824;2023-05-23T00:28:06;98581.25;;;14.90;100.00
9672;BME280;4874;43.568;27.824;2023-05-23T00:30:33;98586.34;;;15.00;100.00
9672;BME280;4874;43.568;27.824;2023-05-23T00:33:00;98584.75;;;14.91;100.00
9672;BME280;4874;43.568;27.824;2023-05-23T00:35:27;98594.72;;;14.97;100.00
9672;BME280;4874;43.568;27.824;2023-05-23T00:37:53;98594.22;;;15.16;100.00
9672;BME280;4874;43.568;27.824;2023-05-23T00:40:21;98586.34;;;15.00;100.00
9672;BME280;4874;43.568;27.824;2023-05-23T00:42:48;98538.22;;;14.85;100.00
9672;BME280;4874;43.568;27.824;2023-05-23T00:45:15;98590.97;;;15.06;100.00
9672;BME280;4874;43.568;27.824;2023-05-23T00:47:45;98570.94;;;14.87;100.00
9672;BME280;4874;43.568;27.824;2023-05-23T00:50:14;98586.56;;;15.13;100.00
9672;BME280;4874;43.568;27.824;2023-05-23T00:52:42;98580.28;;;15.06;100.00
9672;BME280;4874;43.568;27.824;2023-05-23T00:55:11;98583.41;;;15.09;100.00
9672;BME280;4874;43.568;27.824;2023-05-23T00:57:38;98574.81;;;14.99;100.00
9672;BME280;4874;43.568;27.824;2023-05-23T01:00:13;98586.00;;;15.03;100.00
9672;BME280;4874;43.568;27.824;2023-05-23T01:02:44;98575.78;;;15.06;100.00
9672;BME280;4874;43.568;27.824;2023-05-23T01:05:13;98583.94;;;15.05;100.00
9672;BME280;4874;43.568;27.824;2023-05-23T01:07:44;98585.16;;;15.02;100.00
9672;BME280;4874;43.568;27.824;2023-05-23T01:10:12;98588.22;;;15.14;100.00
9672;BME280;4874;43.568;27.824;2023-05-23T01:15:39;98587.50;;;15.20;100.00
9672;BME280;4874;43.568;27.824;2023-05-23T01:18:13;98598.44;;;15.10;100.00
9672;BME280;4874;43.568;27.824;2023-05-23T01:29:03;98579.06;;;15.08;100.00
9672;BME280;4874;43.568;27.824;2023-05-23T01:31:46;98587.03;;;15.16;100.00
9672;BME280;4874;43.568;27.824;2023-05-23T01:34:17;98582.09;;;15.05;100.00
9672;BME280;4874;43.568;27.824;2023-05-23T01:36:44;98586.00;;;15.03;100.00
9672;BME280;4874;43.568;27.824;2023-05-23T01:39:12;98590.50;;;15.02;100.00
9672;BME280;4874;43.568;27.824;2023-05-23T01:41:38;98580.22;;;14.91;100.00
9672;BME280;4874;43.568;27.824;2023-05-23T01:44:06;98583.50;;;15.01;100.00
9672;BME280;4874;43.568;27.824;2023-05-23T01:46:34;98594.94;;;15.10;100.00
9672;BME280;4874;43.568;27.824;2023-05-23T01:49:07;98584.53;;;15.15;100.00
9672;BME280;4874;43.568;27.824;2023-05-23T01:51:36;98590.81;;;15.22;100.00
9672;BME280;4874;43.568;27.824;2023-05-23T01:54:03;98584.81;;;15.20;100.00
9672;BME280;4874;43.568;27.824;2023-05-23T01:56:30;98586.00;;;15.17;100.00
9672;BME280;4874;43.568;27.824;2023-05-23T01:58:57;98590.81;;;15.22;100.00
9672;BME280;4874;43.568;27.824;2023-05-23T02:01:24;98582.03;;;15.13;100.00
9672;BME280;4874;43.568;27.824;2023-05-23T02:03:51;98585.00;;;15.18;100.00
9672;BME280;4874;43.568;27.824;2023-05-23T02:06:17;98590.97;;;15.20;100.00
9672;BME280;4874;43.568;27.824;2023-05-23T02:08:44;98588.38;;;15.12;100.00
9672;BME280;4874;43.568;27.824;2023-05-23T02:11:11;98585.28;;;15.23;100.00
9672;BME280;4874;43.568;27.824;2023-05-23T02:13:38;98571.41;;;15.05;100.00
9672;BME280;4874;43.568;27.824;2023-05-23T02:16:05;98577.31;;;15.01;100.00
9672;BME280;4874;43.568;27.824;2023-05-23T02:18:31;98544.09;;;14.81;100.00
9672;BME280;4874;43.568;27.824;2023-05-23T02:20:58;98580.19;;;15.14;100.00
9672;BME280;4874;43.568;27.824;2023-05-23T02:23:25;98584.31;;;15.02;100.00
9672;BME280;4874;43.568;27.824;2023-05-23T02:25:52;98576.56;;;15.07;100.00
9672;BME280;4874;43.568;27.824;2023-05-23T02:28:18;98569.44;;;14.85;100.00
9672;BME280;4874;43.568;27.824;2023-05-23T02:30:45;98582.00;;;14.99;100.00
9672;BME280;4874;43.568;27.824;2023-05-23T02:33:12;98578.69;;;14.97;100.00
9672;BME280;4874;43.568;27.824;2023-05-23T02:35:39;98584.88;;;14.97;100.00
9672;BME280;4874;43.568;27.824;2023-05-23T02:38:06;98579.84;;;14.80;100.00
9672;BME280;4874;43.568;27.824;2023-05-23T02:40:33;98574.13;;;14.83;100.00
9672;BME280;4874;43.568;27.824;2023-05-23T02:43:00;98581.91;;;15.07;100.00
9672;BME280;4874;43.568;27.824;2023-05-23T02:45:26;98589.00;;;15.00;100.00
9672;BME280;4874;43.568;27.824;2023-05-23T02:47:53;98587.06;;;14.94;100.00
9672;BME280;4874;43.568;27.824;2023-05-23T02:50:20;98592.91;;;14.75;100.00
9672;BME280;4874;43.568;27.824;2023-05-23T02:52:47;98597.06;;;14.77;100.00
9672;BME280;4874;43.568;27.824;2023-05-23T02:55:14;98593.84;;;14.82;100.00
9672;BME280;4874;43.568;27.824;2023-05-23T02:57:41;98587.31;;;14.84;100.00
9672;BME280;4874;43.568;27.824;2023-05-23T03:00:08;98594.81;;;14.66;100.00
9672;BME280;4874;43.568;27.824;2023-05-23T03:02:35;98588.13;;;14.70;100.00
9672;BME280;4874;43.568;27.824;2023-05-23T03:05:03;98594.94;;;14.73;100.00
9672;BME280;4874;43.568;27.824;2023-05-23T03:07:31;98594.88;;;14.81;100.00
9672;BME280;4874;43.568;27.824;2023-05-23T03:09:59;98584.59;;;14.70;100.00
9672;BME280;4874;43.568;27.824;2023-05-23T03:12:29;98598.88;;;14.99;100.00
9672;BME280;4874;43.568;27.824;2023-05-23T03:14:55;98597.06;;;15.14;100.00
9672;BME280;4874;43.568;27.824;2023-05-23T03:17:24;98595.97;;;15.38;100.00
9672;BME280;4874;43.568;27.824;2023-05-23T03:19:51;98596.56;;;15.48;100.00
9672;BME280;4874;43.568;27.824;2023-05-23T03:22:17;98605.34;;;15.42;100.00
9672;BME280;4874;43.568;27.824;2023-05-23T03:24:44;98606.53;;;15.40;100.00
9672;BME280;4874;43.568;27.824;2023-05-23T03:27:11;98603.34;;;15.21;100.00
9672;BME280;4874;43.568;27.824;2023-05-23T03:29:38;98593.25;;;14.94;100.00
9672;BME280;4874;43.568;27.824;2023-05-23T03:32:05;98603.00;;;14.87;100.00
9672;BME280;4874;43.568;27.824;2023-05-23T03:34:33;98605.31;;;15.05;100.00
9672;BME280;4874;43.568;27.824;2023-05-23T03:37:01;98591.75;;;14.92;100.00
9672;BME280;4874;43.568;27.824;2023-05-23T03:39:28;98611.34;;;15.07;100.00
9672;BME280;4874;43.568;27.824;2023-05-23T03:41:55;98599.00;;;15.06;100.00
9672;BME280;4874;43.568;27.824;2023-05-23T03:44:22;98598.44;;;15.10;100.00
9672;BME280;4874;43.568;27.824;2023-05-23T03:46:48;98603.75;;;14.96;100.00
9672;BME280;4874;43.568;27.824;2023-05-23T03:49:15;98610.16;;;15.24;100.00
9672;BME280;4874;43.568;27.824;2023-05-23T03:51:42;98610.34;;;15.08;100.00
9672;BME280;4874;43.568;27.824;2023-05-23T03:54:08;98608.66;;;15.07;100.00
9672;BME280;4874;43.568;27.824;2023-05-23T03:56:35;98620.94;;;15.16;100.00
9672;BME280;4874;43.568;27.824;2023-05-23T03:59:02;98607.13;;;14.90;100.00
9672;BME280;4874;43.568;27.824;2023-05-23T04:01:28;98609.75;;;14.98;100.00
9672;BME280;4874;43.568;27.824;2023-05-23T04:03:55;98615.72;;;15.00;100.00
9672;BME280;4874;43.568;27.824;2023-05-23T04:06:22;98618.41;;;15.00;100.00
9672;BME280;4874;43.568;27.824;2023-05-23T04:08:49;98617.22;;;15.02;100.00
9672;BME280;4874;43.568;27.824;2023-05-23T04:11:15;98607.09;;;14.98;100.00
9672;BME280;4874;43.568;27.824;2023-05-23T04:13:43;98609.59;;;15.14;100.00
9672;BME280;4874;43.568;27.824;2023-05-23T04:16:12;98622.97;;;15.14;100.00
9672;BME280;4874;43.568;27.824;2023-05-23T04:18:39;98613.59;;;15.18;100.00
9672;BME280;4874;43.568;27.824;2023-05-23T04:21:06;98591.38;;;14.95;100.00
9672;BME280;4874;43.568;27.824;2023-05-23T04:23:32;98617.88;;;15.04;100.00
9672;BME280;4874;43.568;27.824;2023-05-23T04:25:59;98624.78;;;15.13;100.00
9672;BME280;4874;43.568;27.824;2023-05-23T04:28:26;98626.47;;;15.14;100.00
9672;BME280;4874;43.568;27.824;2023-05-23T04:30:53;98620.94;;;15.16;100.00
9672;BME280;4874;43.568;27.824;2023-05-23T04:33:21;98632.28;;;15.18;100.00
9672;BME280;4874;43.568;27.824;2023-05-23T04:35:48;98615.13;;;14.98;100.00
9672;BME280;4874;43.568;27.824;2023-05-23T04:38:16;98623.25;;;15.19;100.00
9672;BME280;4874;43.568;27.824;2023-05-23T04:40:43;98630.56;;;15.25;100.00
9672;BME280;4874;43.568;27.824;2023-05-23T04:43:10;98629.63;;;15.32;100.00
9672;BME280;4874;43.568;27.824;2023-05-23T04:45:39;98635.09;;;15.39;100.00
9672;BME280;4874;43.568;27.824;2023-05-23T04:48:07;98641.97;;;15.56;100.00
9672;BME280;4874;43.568;27.824;2023-05-23T04:50:34;98639.94;;;15.58;100.00
9672;BME280;4874;43.568;27.824;2023-05-23T04:53:03;98645.75;;;15.62;100.00
9672;BME280;4874;43.568;27.824;2023-05-23T04:55:29;98662.09;;;15.81;100.00
9672;BME280;4874;43.568;27.824;2023-05-23T04:57:58;98647.22;;;15.93;100.00
9672;BME280;4874;43.568;27.824;2023-05-23T05:00:25;98642.22;;;16.05;100.00
9672;BME280;4874;43.568;27.824;2023-05-23T05:02:52;98647.31;;;16.14;100.00
9672;BME280;4874;43.568;27.824;2023-05-23T05:05:19;98644.72;;;16.21;100.00
9672;BME280;4874;43.568;27.824;2023-05-23T05:07:45;98638.38;;;16.28;100.00
9672;BME280;4874;43.568;27.824;2023-05-23T05:10:13;98650.53;;;16.60;100.00
9672;BME280;4874;43.568;27.824;2023-05-23T05:12:45;98637.00;;;16.68;100.00
9672;BME280;4874;43.568;27.824;2023-05-23T05:15:17;98636.78;;;16.84;100.00
9672;BME280;4874;43.568;27.824;2023-05-23T05:17:45;98624.50;;;16.75;100.00
9672;BME280;4874;43.568;27.824;2023-05-23T05:20:13;98642.03;;;16.99;100.00
9672;BME280;4874;43.568;27.824;2023-05-23T05:22:40;98643.28;;;17.17;100.00
9672;BME280;4874;43.568;27.824;2023-05-23T05:25:09;98639.09;;;17.15;100.00
9672;BME280;4874;43.568;27.824;2023-05-23T05:27:38;98644.97;;;17.25;100.00
9672;BME280;4874;43.568;27.824;2023-05-23T05:30:06;98650.13;;;17.47;100.00
9672;BME280;4874;43.568;27.824;2023-05-23T05:32:33;98638.31;;;17.76;100.00
9672;BME280;4874;43.568;27.824;2023-05-23T05:35:01;98645.69;;;18.02;100.00
9672;BME280;4874;43.568;27.824;2023-05-23T05:37:28;98633.50;;;17.93;100.00
9672;BME280;4874;43.568;27.824;2023-05-23T05:39:55;98635.47;;;18.18;100.00
9672;BME280;4874;43.568;27.824;2023-05-23T05:42:22;98631.31;;;18.16;100.00
9672;BME280;4874;43.568;27.824;2023-05-23T05:44:49;98579.19;;;17.63;100.00
9672;BME280;4874;43.568;27.824;2023-05-23T05:47:16;98624.22;;;18.02;100.00
9672;BME280;4874;43.568;27.824;2023-05-23T05:49:43;98639.63;;;18.27;100.00
9672;BME280;4874;43.568;27.824;2023-05-23T05:52:09;98639.31;;;18.43;100.00
9672;BME280;4874;43.568;27.824;2023-05-23T05:54:36;98641.34;;;18.41;100.00
9672;BME280;4874;43.568;27.824;2023-05-23T05:57:04;98615.41;;;18.21;100.00
9672;BME280;4874;43.568;27.824;2023-05-23T05:59:31;98638.81;;;18.33;100.00
9672;BME280;4874;43.568;27.824;2023-05-23T06:01:58;98640.44;;;18.75;100.00
9672;BME280;4874;43.568;27.824;2023-05-23T06:04:25;98629.63;;;18.55;100.00
9672;BME280;4874;43.568;27.824;2023-05-23T06:06:51;98630.88;;;18.66;100.00
9672;BME280;4874;43.568;27.824;2023-05-23T06:09:18;98632.78;;;18.92;100.00
9672;BME280;4874;43.568;27.824;2023-05-23T06:11:45;98635.06;;;18.82;100.00
9672;BME280;4874;43.568;27.824;2023-05-23T06:14:12;98633.63;;;18.99;100.00
9672;BME280;4874;43.568;27.824;2023-05-23T06:16:39;98630.31;;;19.10;100.00
9672;BME280;4874;43.568;27.824;2023-05-23T06:19:05;98621.00;;;19.19;100.00
9672;BME280;4874;43.568;27.824;2023-05-23T06:21:32;98637.56;;;19.16;100.00
9672;BME280;4874;43.568;27.824;2023-05-23T06:23:59;98625.56;;;19.12;100.00
9672;BME280;4874;43.568;27.824;2023-05-23T06:26:26;98628.03;;;18.87;100.00
9672;BME280;4874;43.568;27.824;2023-05-23T06:28:53;98627.63;;;18.84;100.00
9672;BME280;4874;43.568;27.824;2023-05-23T06:31:19;98632.78;;;19.05;100.00
9672;BME280;4874;43.568;27.824;2023-05-23T06:33:46;98623.47;;;18.74;100.00
9672;BME280;4874;43.568;27.824;2023-05-23T06:36:13;98648.13;;;19.17;100.00
9672;BME280;4874;43.568;27.824;2023-05-23T06:38:40;98638.16;;;18.79;100.00
9672;BME280;4874;43.568;27.824;2023-05-23T06:41:06;98633.81;;;18.77;100.00
9672;BME280;4874;43.568;27.824;2023-05-23T06:43:33;98633.22;;;19.08;100.00
9672;BME280;4874;43.568;27.824;2023-05-23T06:46:00;98622.66;;;19.13;100.00
9672;BME280;4874;43.568;27.824;2023-05-23T06:48:27;98628.03;;;19.07;100.00
9672;BME280;4874;43.568;27.824;2023-05-23T06:50:53;98627.63;;;19.10;100.00
9672;BME280;4874;43.568;27.824;2023-05-23T06:53:20;98623.69;;;19.25;100.00
9672;BME280;4874;43.568;27.824;2023-05-23T06:55:47;98628.44;;;19.23;100.00
9672;BME280;4874;43.568;27.824;2023-05-23T06:58:14;98627.22;;;19.13;100.00
9672;BME280;4874;43.568;27.824;2023-05-23T07:00:41;98616.66;;;18.98;100.00
9672;BME280;4874;43.568;27.824;2023-05-23T07:03:08;98640.66;;;18.93;100.00
9672;BME280;4874;43.568;27.824;2023-05-23T07:05:35;98634.03;;;19.15;100.00
9672;BME280;4874;43.568;27.824;2023-05-23T07:08:04;98629.94;;;19.13;100.00
9672;BME280;4874;43.568;27.824;2023-05-23T07:10:32;98616.88;;;19.03;100.00
9672;BME280;4874;43.568;27.824;2023-05-23T07:13:00;98613.75;;;19.00;100.00
9672;BME280;4874;43.568;27.824;2023-05-23T07:15:27;98628.25;;;19.05;100.00
9672;BME280;4874;43.568;27.824;2023-05-23T07:17:54;98618.75;;;19.16;100.00
9672;BME280;4874;43.568;27.824;2023-05-23T07:20:21;98621.22;;;19.17;100.00
9672;BME280;4874;43.568;27.824;2023-05-23T07:22:48;98625.78;;;19.04;100.00
9672;BME280;4874;43.568;27.824;2023-05-23T07:25:17;98629.91;;;19.00;100.00
9672;BME280;4874;43.568;27.824;2023-05-23T07:27:43;98629.25;;;18.98;100.00
9672;BME280;4874;43.568;27.824;2023-05-23T07:30:10;98626.19;;;19.07;100.00
9672;BME280;4874;43.568;27.824;2023-05-23T07:32:37;98623.91;;;19.11;100.00
9672;BME280;4874;43.568;27.824;2023-05-23T07:35:04;98624.31;;;19.21;100.00
9672;BME280;4874;43.568;27.824;2023-05-23T07:37:31;98632.84;;;19.50;100.00
9672;BME280;4874;43.568;27.824;2023-05-23T07:39:58;98636.13;;;19.52;100.00
9672;BME280;4874;43.568;27.824;2023-05-23T07:42:24;98623.06;;;19.17;100.00
9672;BME280;4874;43.568;27.824;2023-05-23T07:44:51;98629.09;;;19.32;100.00
9672;BME280;4874;43.568;27.824;2023-05-23T07:47:18;98632.19;;;19.55;100.00
9672;BME280;4874;43.568;27.824;2023-05-23T07:49:44;98617.69;;;19.56;100.00
9672;BME280;4874;43.568;27.824;2023-05-23T07:52:13;98626.59;;;19.63;100.00
9672;BME280;4874;43.568;27.824;2023-05-23T07:54:39;98609.63;;;19.62;100.00
9672;BME280;4874;43.568;27.824;2023-05-23T07:57:06;98628.16;;;19.90;100.00
9672;BME280;4874;43.568;27.824;2023-05-23T07:59:35;98618.63;;;20.07;100.00
9672;BME280;4874;43.568;27.824;2023-05-23T08:02:02;98630.25;;;19.95;100.00
9672;BME280;4874;43.568;27.824;2023-05-23T08:04:28;98623.59;;;20.04;100.00
9672;BME280;4874;43.568;27.824;2023-05-23T08:06:56;98623.97;;;20.20;100.00
9672;BME280;4874;43.568;27.824;2023-05-23T08:09:30;98617.97;;;20.56;100.00
9672;BME280;4874;43.568;27.824;2023-05-23T08:11:57;98626.34;;;20.48;100.00
9672;BME280;4874;43.568;27.824;2023-05-23T08:14:24;98621.69;;;20.61;100.00
9672;BME280;4874;43.568;27.824;2023-05-23T08:16:57;98581.91;;;20.50;100.00
9672;BME280;4874;43.568;27.824;2023-05-23T08:19:24;98615.00;;;20.70;100.00
9672;BME280;4874;43.568;27.824;2023-05-23T08:21:51;98609.06;;;20.86;100.00
9672;BME280;4874;43.568;27.824;2023-05-23T08:24:19;98598.53;;;20.78;100.00
9672;BME280;4874;43.568;27.824;2023-05-23T08:26:47;98608.34;;;20.73;100.00
9672;BME280;4874;43.568;27.824;2023-05-23T08:29:14;98599.78;;;20.82;100.00
9672;BME280;4874;43.568;27.824;2023-05-23T08:31:41;98609.59;;;20.70;100.00
9672;BME280;4874;43.568;27.824;2023-05-23T08:34:08;98587.44;;;20.93;100.00
9672;BME280;4874;43.568;27.824;2023-05-23T08:36:34;98600.13;;;20.92;100.00
9672;BME280;4874;43.568;27.824;2023-05-23T08:39:02;98607.19;;;20.87;100.00
9672;BME280;4874;43.568;27.824;2023-05-23T08:41:29;98599.50;;;20.90;100.00
9672;BME280;4874;43.568;27.824;2023-05-23T08:43:56;98596.72;;;21.28;100.00
9672;BME280;4874;43.568;27.824;2023-05-23T08:46:23;98596.72;;;21.03;100.00
9672;BME280;4874;43.568;27.824;2023-05-23T08:48:51;98585.66;;;20.80;100.00
9672;BME280;4874;43.568;27.824;2023-05-23T08:51:21;98608.19;;;20.99;100.00
9672;BME280;4874;43.568;27.824;2023-05-23T08:53:48;98598.28;;;20.86;100.00
9672;BME280;4874;43.568;27.824;2023-05-23T08:56:18;98588.84;;;21.02;100.00
9672;BME280;4874;43.568;27.824;2023-05-23T08:58:45;98577.22;;;21.01;100.00
9672;BME280;4874;43.568;27.824;2023-05-23T09:01:13;98599.16;;;21.36;100.00
9672;BME280;4874;43.568;27.824;2023-05-23T09:03:40;98598.88;;;21.20;100.00
9672;BME280;4874;43.568;27.824;2023-05-23T09:06:10;98566.84;;;20.67;100.00
9672;BME280;4874;43.568;27.824;2023-05-23T09:08:36;98606.72;;;20.96;100.00
9672;BME280;4874;43.568;27.824;2023-05-23T09:11:05;98559.25;;;20.89;100.00
9672;BME280;4874;43.568;27.824;2023-05-23T09:13:33;98590.72;;;21.26;100.00
9672;BME280;4874;43.568;27.824;2023-05-23T09:16:04;98598.75;;;21.57;100.00
9672;BME280;4874;43.568;27.824;2023-05-23T09:18:39;98593.94;;;21.17;100.00
9672;BME280;4874;43.568;27.824;2023-05-23T09:21:10;98579.00;;;21.14;100.00
9672;BME280;4874;43.568;27.824;2023-05-23T09:23:39;98596.75;;;21.46;100.00
9672;BME280;4874;43.568;27.824;2023-05-23T09:26:10;98596.66;;;21.35;100.00
9672;BME280;4874;43.568;27.824;2023-05-23T09:28:40;98593.16;;;21.10;100.00
9672;BME280;4874;43.568;27.824;2023-05-23T09:31:08;98595.56;;;21.18;100.00
9672;BME280;4874;43.568;27.824;2023-05-23T09:33:46;98594.34;;;21.14;100.00
9672;BME280;4874;43.568;27.824;2023-05-23T09:36:16;98600.09;;;21.24;100.00
9672;BME280;4874;43.568;27.824;2023-05-23T09:38:45;98608.53;;;21.09;100.00
9672;BME280;4874;43.568;27.824;2023-05-23T09:41:12;98600.81;;;21.37;100.00
9672;BME280;4874;43.568;27.824;2023-05-23T09:43:49;98587.69;;;20.85;100.00
9672;BME280;4874;43.568;27.824;2023-05-23T09:46:17;98607.69;;;21.09;100.00
9672;BME280;4874;43.568;27.824;2023-05-23T09:48:48;98610.97;;;20.86;100.00
9672;BME280;4874;43.568;27.824;2023-05-23T09:51:21;98617.31;;;20.67;100.00
9672;BME280;4874;43.568;27.824;2023-05-23T09:53:49;98615.03;;;20.64;100.00
9672;BME280;4874;43.568;27.824;2023-05-23T09:56:16;98627.84;;;20.37;100.00
9672;BME280;4874;43.568;27.824;2023-05-23T09:58:47;98625.22;;;20.18;100.00
9672;BME280;4874;43.568;27.824;2023-05-23T10:01:15;98628.97;;;20.17;100.00
9672;BME280;4874;43.568;27.824;2023-05-23T10:03:49;98631.66;;;20.10;100.00
9672;BME280;4874;43.568;27.824;2023-05-23T10:06:25;98637.75;;;19.86;100.00
9672;BME280;4874;43.568;27.824;2023-05-23T10:09:05;98641.31;;;19.54;100.00
9672;BME280;4874;43.568;27.824;2023-05-23T10:14:01;98640.69;;;19.58;100.00
9672;BME280;4874;43.568;27.824;2023-05-23T10:19:23;98641.09;;;19.42;100.00
9672;BME280;4874;43.568;27.824;2023-05-23T10:21:57;98638.22;;;19.37;100.00
9672;BME280;4874;43.568;27.824;2023-05-23T10:24:28;98633.47;;;19.33;100.00
9672;BME280;4874;43.568;27.824;2023-05-23T10:26:55;98645.84;;;19.21;100.00
9672;BME280;4874;43.568;27.824;2023-05-23T10:29:24;98631.81;;;19.38;100.00
9672;BME280;4874;43.568;27.824;2023-05-23T10:31:51;98642.13;;;19.22;100.00
9672;BME280;4874;43.568;27.824;2023-05-23T10:37:01;98638.22;;;19.37;100.00
9672;BME280;4874;43.568;27.824;2023-05-23T10:40:12;98639.06;;;19.38;100.00
9672;BME280;4874;43.568;27.824;2023-05-23T10:45:19;98635.28;;;19.26;100.00
9672;BME280;4874;43.568;27.824;2023-05-23T10:47:51;98631.38;;;19.41;100.00
9672;BME280;4874;43.568;27.824;2023-05-23T10:50:34;98636.38;;;19.31;100.00
9672;BME280;4874;43.568;27.824;2023-05-23T10:53:04;98637.38;;;19.56;100.00
9672;BME280;4874;43.568;27.824;2023-05-23T10:55:32;98635.25;;;19.84;100.00
9672;BME280;4874;43.568;27.824;2023-05-23T10:58:10;98641.03;;;19.81;100.00
9672;BME280;4874;43.568;27.824;2023-05-23T11:00:38;98644.56;;;19.82;100.00
9672;BME280;4874;43.568;27.824;2023-05-23T11:03:05;98618.75;;;19.42;100.00
9672;BME280;4874;43.568;27.824;2023-05-23T11:05:34;98637.56;;;19.61;100.00
9672;BME280;4874;43.568;27.824;2023-05-23T11:08:13;98627.13;;;19.98;100.00
9672;BME280;4874;43.568;27.824;2023-05-23T11:13:20;98616.50;;;20.09;100.00
9672;BME280;4874;43.568;27.824;2023-05-23T11:15:48;98648.44;;;20.12;100.00
9672;BME280;4874;43.568;27.824;2023-05-23T11:18:27;98643.25;;;20.24;100.00
9672;BME280;4874;43.568;27.824;2023-05-23T11:20:54;98643.25;;;20.04;100.00
9672;BME280;4874;43.568;27.824;2023-05-23T11:23:22;98642.59;;;20.28;100.00
9672;BME280;4874;43.568;27.824;2023-05-23T11:25:50;98641.38;;;20.18;100.00
9672;BME280;4874;43.568;27.824;2023-05-23T11:28:18;98641.00;;;20.01;100.00
9672;BME280;4874;43.568;27.824;2023-05-23T11:30:49;98637.84;;;20.24;100.00
9672;BME280;4874;43.568;27.824;2023-05-23T11:33:16;98639.63;;;20.43;100.00
9672;BME280;4874;43.568;27.824;2023-05-23T11:35:45;98636.75;;;20.38;100.00
9672;BME280;4874;43.568;27.824;2023-05-23T11:38:14;98647.50;;;20.44;100.00
9672;BME280;4874;43.568;27.824;2023-05-23T11:40:44;98636.69;;;20.51;100.00
9672;BME280;4874;43.568;27.824;2023-05-23T11:43:16;98635.78;;;20.63;100.00
9672;BME280;4874;43.568;27.824;2023-05-23T11:45:43;98624.81;;;20.89;100.00
9672;BME280;4874;43.568;27.824;2023-05-23T11:48:15;98628.19;;;20.85;100.00
9672;BME280;4874;43.568;27.824;2023-05-23T11:53:10;98620.25;;;20.90;100.00
9672;BME280;4874;43.568;27.824;2023-05-23T11:55:50;98611.94;;;20.91;100.00
9672;BME280;4874;43.568;27.824;2023-05-23T11:58:25;98611.13;;;20.91;100.00
9672;BME280;4874;43.568;27.824;2023-05-23T12:00:58;98590.75;;;20.95;100.00
9672;BME280;4874;43.568;27.824;2023-05-23T12:03:25;98601.81;;;21.18;100.00
9672;BME280;4874;43.568;27.824;2023-05-23T12:05:53;98593.34;;;21.33;100.00
9672;BME280;4874;43.568;27.824;2023-05-23T12:08:20;98605.66;;;21.29;100.00
9672;BME280;4874;43.568;27.824;2023-05-23T12:10:51;98597.03;;;21.20;100.00
9672;BME280;4874;43.568;27.824;2023-05-23T12:13:19;98605.22;;;21.32;100.00
9672;BME280;4874;43.568;27.824;2023-05-23T12:15:52;98592.88;;;21.85;100.00
9672;BME280;4874;43.568;27.824;2023-05-23T12:18:19;98602.44;;;21.63;100.00
9672;BME280;4874;43.568;27.824;2023-05-23T12:20:48;98574.41;;;21.75;100.00
9672;BME280;4874;43.568;27.824;2023-05-23T12:23:18;98595.56;;;22.03;100.00
9672;BME280;4874;43.568;27.824;2023-05-23T12:25:49;98586.78;;;21.89;100.00
9672;BME280;4874;43.568;27.824;2023-05-23T12:28:17;98568.22;;;22.11;100.00
9672;BME280;4874;43.568;27.824;2023-05-23T12:30:44;98585.94;;;22.07;100.00
9672;BME280;4874;43.568;27.824;2023-05-23T12:33:11;98585.78;;;22.20;100.00
9672;BME280;4874;43.568;27.824;2023-05-23T12:35:42;98579.94;;;22.05;100.00
9672;BME280;4874;43.568;27.824;2023-05-23T12:38:13;98583.94;;;22.32;100.00
9672;BME280;4874;43.568;27.824;2023-05-23T12:40:42;98575.53;;;22.70;100.00
9672;BME280;4874;43.568;27.824;2023-05-23T12:43:09;98583.16;;;22.32;100.00
9672;BME280;4874;43.568;27.824;2023-05-23T12:45:36;98572.31;;;22.32;100.00
9672;BME280;4874;43.568;27.824;2023-05-23T12:48:04;98581.72;;;22.29;100.00
9672;BME280;4874;43.568;27.824;2023-05-23T12:50:31;98579.97;;;21.87;100.00
9672;BME280;4874;43.568;27.824;2023-05-23T12:52:58;98553.06;;;21.92;100.00
9672;BME280;4874;43.568;27.824;2023-05-23T12:55:25;98574.47;;;22.41;100.00
9672;BME280;4874;43.568;27.824;2023-05-23T12:57:52;98575.53;;;22.40;100.00
9672;BME280;4874;43.568;27.824;2023-05-23T13:00:20;98578.81;;;22.12;100.00
9672;BME280;4874;43.568;27.824;2023-05-23T13:02:47;98573.63;;;22.11;100.00
9672;BME280;4874;43.568;27.824;2023-05-23T13:05:14;98553.41;;;22.13;100.00
9672;BME280;4874;43.568;27.824;2023-05-23T13:07:41;98556.91;;;22.32;100.00
9672;BME280;4874;43.568;27.824;2023-05-23T13:10:09;98557.09;;;22.49;100.00
9672;BME280;4874;43.568;27.824;2023-05-23T13:12:36;98561.38;;;22.56;100.00
9672;BME280;4874;43.568;27.824;2023-05-23T13:15:04;98526.56;;;22.00;100.00
9672;BME280;4874;43.568;27.824;2023-05-23T13:17:31;98561.97;;;22.58;100.00
9672;BME280;4874;43.568;27.824;2023-05-23T13:19:58;98556.34;;;22.71;100.00
9672;BME280;4874;43.568;27.824;2023-05-23T13:22:25;98554.63;;;22.77;100.00
9672;BME280;4874;43.568;27.824;2023-05-23T13:24:52;98567.78;;;22.73;100.00
9672;BME280;4874;43.568;27.824;2023-05-23T13:27:18;98571.97;;;22.58;100.00
9672;BME280;4874;43.568;27.824;2023-05-23T13:29:45;98559.91;;;21.94;100.00
9672;BME280;4874;43.568;27.824;2023-05-23T13:32:12;98555.38;;;22.06;100.00